Overview Statistics Trail Chart Weather Telemetry Raw packets
 

This is the latest recevied weather packets stored in our database for station/object N6GPM. If no packets are shown the sender has not sent any weather packets the latest 10 day(s).

<< 7 8 9 10 11 12 13 >>
Time Temp. Humidity Pressure Rain* Wind** Luminosity Snow
1788625556 25° C 25% 1018.9 hPa 0 mm - 572 W/m² -
1788625254 24.44° C 25% 1018.8 hPa 0 mm - 571 W/m² -
1788624949 24.44° C 22% 1018.7 hPa 0 mm - 550 W/m² -
1788624647 24.44° C 21% 1018.9 hPa 0 mm - 527 W/m² -
1788624346 24.44° C 21% 1018.8 hPa 0 mm - 88 W/m² -
1788624046 23.89° C 22% 1018.7 hPa 0 mm - 485 W/m² -
1788623746 23.89° C 24% 1018.8 hPa 0 mm - 468 W/m² -
1788623444 23.33° C 24% 1018.9 hPa 0 mm - 442 W/m² -
1788623140 23.33° C 23% 1018.7 hPa 0 mm - 355 W/m² -
1788622835 23.33° C 23% 1018.9 hPa 0 mm - 398 W/m² -
1788622531 22.78° C 23% 1018.7 hPa 0 mm - 62 W/m² -
1788622231 22.78° C 23% 1018.6 hPa 0 mm - 349 W/m² -
1788621925 22.22° C 27% 1018.6 hPa 0 mm - 334 W/m² -
1788621621 21.67° C 29% 1018.5 hPa 0 mm - 52 W/m² -
1788621316 21.11° C 32% 1018.7 hPa 0 mm - 52 W/m² -
1788621011 20.56° C 33% 1018.4 hPa 0 mm - 61 W/m² -
1788620712 20° C 35% 1018.5 hPa 0 mm - 57 W/m² -
1788620403 20° C 35% 1018.5 hPa 0 mm - 58 W/m² -
1788620098 20° C 34% 1018.4 hPa 0 mm - 57 W/m² -
1788619797 20° C 36% 1018.2 hPa 0 mm - 107 W/m² -
1788619493 18.89° C 39% 1018.4 hPa 0 mm - 161 W/m² -
1788619191 18.33° C 43% 1018.4 hPa 0 mm - 150 W/m² -
1788618890 17.78° C 43% 1018.3 hPa 0 mm - 134 W/m² -
1788618585 17.78° C 43% 1018.2 hPa 0 mm - 117 W/m² -
1788618284 17.78° C 42% 1017.9 hPa 0 mm - 102 W/m² -

* Rain latest hour (hover to see other rain measurements)
** Current wind speed in m/s (hover to see current wind gust speed)